Boston Elite — WDJ5159 — position and weather

sailwx.info

Track history (hours):
 
Tides and Currents Weather Stations Pressure Air Temp Water Temp Dewpoint Dewpoint Depression Visibility Wind Speed Wind Dir Waves Ship Positions

Boston Elite

Owner: Spirit Cruises LLC, Chicago, IL. More information available from US FCC via Universal Licensing System and Coast Guard Vessel Documentation Center.

Last reported at 2017-Oct-19 00:26 UTC. Time now 2017-Oct-20 16:18 UTC.
Position N 42°21' W 071°03'.

Length 30 m; draft 1.7 m.

Type: Ship. MMSI: 367784920.

Date/timePositionNaut miles runAvg speedWind from/ knotsBaromVisibWave heightAir tempDewpointWater temp
2017-Oct-19 00:26N 42°21' W 071°03'0 1.1
2017-Oct-19 00:00N 42°22' W 071°03'1 1.1
2017-Oct-18 23:30N 42°22' W 071°03'2 3.8
2017-Oct-18 23:00N 42°21' W 071°01'2 4.4
2017-Oct-18 22:30N 42°23' W 071°03'1 1.1
2017-Oct-18 22:00N 42°22' W 071°03'1 0.0
2017-Oct-17 22:55N 42°21' W 071°03'0 0.6
2017-Oct-17 22:30N 42°21' W 071°03'0 0.3
2017-Oct-17 22:00N 42°21' W 071°03'1 1.0
2017-Oct-17 21:30N 42°22' W 071°03'0 1.0
2017-Oct-17 21:01N 42°22' W 071°03'1 2.5
2017-Oct-17 20:31N 42°21' W 071°02'0 0.8
2017-Oct-17 20:01N 42°21' W 071°03'0 0.3
2017-Oct-17 19:30N 42°21' W 071°03'0 0.0
2017-Oct-16 21:27N 42°21' W 071°03'1 1.9
2017-Oct-16 21:00N 42°22' W 071°03'1 1.1
2017-Oct-16 20:30N 42°22' W 071°03'0 0.9
2017-Oct-16 20:00N 42°21' W 071°02'0 0.7
2017-Oct-16 19:30N 42°21' W 071°03'0 0.0
2017-Oct-16 19:00N 42°21' W 071°03'0 0.0
2017-Oct-16 18:30N 42°21' W 071°03'2 3.9
2017-Oct-16 18:00N 42°21' W 071°01'0 0.6
2017-Oct-16 17:30N 42°20' W 071°00'3 5.8
2017-Oct-16 17:00N 42°22' W 071°03'1 1.7
2017-Oct-16 16:30N 42°21' W 071°03'0 0.0
2017-Oct-16 16:00N 42°21' W 071°03'0 0.0
2017-Oct-16 01:46N 42°21' W 071°03'0 1.2
2017-Oct-16 01:30N 42°22' W 071°03'0 0.6
2017-Oct-16 01:00N 42°21' W 071°02'2 3.3
2017-Oct-16 00:30N 42°23' W 071°03'1 1.9
2017-Oct-16 00:00N 42°22' W 071°03'2 4.2
2017-Oct-15 23:30N 42°21' W 071°01'1 2.7
2017-Oct-15 23:00N 42°21' W 071°02'0 1.0
2017-Oct-15 22:30N 42°21' W 071°03'  
2017-Oct-13 00:11N 42°21' W 071°03'0 1.8
2017-Oct-13 00:00N 42°21' W 071°03'2 4.0
2017-Oct-12 23:30N 42°20' W 071°00'3 5.1
2017-Oct-12 23:01N 42°19' W 070°58'1 2.6
2017-Oct-12 22:31N 42°18' W 070°57'2 4.7
2017-Oct-12 22:00N 42°19' W 070°60'2 4.9
2017-Oct-12 21:31N 42°21' W 071°02'1 3.0
2017-Oct-12 21:01N 42°22' W 071°03'0 0.7
2017-Oct-12 20:31N 42°23' W 071°03'1 2.6
2017-Oct-12 20:00N 42°21' W 071°03'0 0.0
2017-Oct-11 21:52N 42°21' W 071°03'0 1.0
2017-Oct-11 21:30N 42°21' W 071°02'1 2.1
2017-Oct-11 21:00N 42°22' W 071°03'2 4.3
2017-Oct-11 20:30N 42°21' W 071°01'1 2.8
2017-Oct-11 20:00N 42°21' W 071°03'0 0.0
2017-Oct-10 18:40N 42°21' W 071°03'0 2.3
2017-Oct-10 18:30N 42°21' W 071°02'1 2.2
2017-Oct-10 18:00N 42°21' W 071°01'2 4.5
2017-Oct-10 17:30N 42°22' W 071°03'1 1.7
2017-Oct-10 16:59N 42°21' W 071°03'0 0.0
2017-Oct-10 16:29N 42°21' W 071°03'  
Track history (hours):
 
Tides and Currents Weather Stations Pressure Air Temp Water Temp Dewpoint Dewpoint Depression Visibility Wind Speed Wind Dir Waves Ship Positions

Boston Elite

Owner: Spirit Cruises LLC, Chicago, IL. More information available from US FCC via Universal Licensing System and Coast Guard Vessel Documentation Center.

Last reported at 2017-Oct-19 00:26 UTC. Time now 2017-Oct-20 16:18 UTC.
Position N 42°21' W 071°03'.

Length 30 m; draft 1.7 m.

Type: Ship. MMSI: 367784920.

Date/timePositionNaut miles runAvg speedWind from/ knotsBaromVisibWave heightAir tempDewpointWater temp
2017-Oct-19 00:26N 42°21' W 071°03'0 1.1
2017-Oct-19 00:00N 42°22' W 071°03'1 1.1
2017-Oct-18 23:30N 42°22' W 071°03'2 3.8
2017-Oct-18 23:00N 42°21' W 071°01'2 4.4
2017-Oct-18 22:30N 42°23' W 071°03'1 1.1
2017-Oct-18 22:00N 42°22' W 071°03'1 0.0
2017-Oct-17 22:55N 42°21' W 071°03'0 0.6
2017-Oct-17 22:30N 42°21' W 071°03'0 0.3
2017-Oct-17 22:00N 42°21' W 071°03'1 1.0
2017-Oct-17 21:30N 42°22' W 071°03'0 1.0
2017-Oct-17 21:01N 42°22' W 071°03'1 2.5
2017-Oct-17 20:31N 42°21' W 071°02'0 0.8
2017-Oct-17 20:01N 42°21' W 071°03'0 0.3
2017-Oct-17 19:30N 42°21' W 071°03'0 0.0
2017-Oct-16 21:27N 42°21' W 071°03'1 1.9
2017-Oct-16 21:00N 42°22' W 071°03'1 1.1
2017-Oct-16 20:30N 42°22' W 071°03'0 0.9
2017-Oct-16 20:00N 42°21' W 071°02'0 0.7
2017-Oct-16 19:30N 42°21' W 071°03'0 0.0
2017-Oct-16 19:00N 42°21' W 071°03'0 0.0
2017-Oct-16 18:30N 42°21' W 071°03'2 3.9
2017-Oct-16 18:00N 42°21' W 071°01'0 0.6
2017-Oct-16 17:30N 42°20' W 071°00'3 5.8
2017-Oct-16 17:00N 42°22' W 071°03'1 1.7
2017-Oct-16 16:30N 42°21' W 071°03'0 0.0
2017-Oct-16 16:00N 42°21' W 071°03'0 0.0
2017-Oct-16 01:46N 42°21' W 071°03'0 1.2
2017-Oct-16 01:30N 42°22' W 071°03'0 0.6
2017-Oct-16 01:00N 42°21' W 071°02'2 3.3
2017-Oct-16 00:30N 42°23' W 071°03'1 1.9
2017-Oct-16 00:00N 42°22' W 071°03'2 4.2
2017-Oct-15 23:30N 42°21' W 071°01'1 2.7
2017-Oct-15 23:00N 42°21' W 071°02'0 1.0
2017-Oct-15 22:30N 42°21' W 071°03'  
2017-Oct-13 00:11N 42°21' W 071°03'0 1.8
2017-Oct-13 00:00N 42°21' W 071°03'2 4.0
2017-Oct-12 23:30N 42°20' W 071°00'3 5.1
2017-Oct-12 23:01N 42°19' W 070°58'1 2.6
2017-Oct-12 22:31N 42°18' W 070°57'2 4.7
2017-Oct-12 22:00N 42°19' W 070°60'2 4.9
2017-Oct-12 21:31N 42°21' W 071°02'1 3.0
2017-Oct-12 21:01N 42°22' W 071°03'0 0.7
2017-Oct-12 20:31N 42°23' W 071°03'1 2.6
2017-Oct-12 20:00N 42°21' W 071°03'0 0.0
2017-Oct-11 21:52N 42°21' W 071°03'0 1.0
2017-Oct-11 21:30N 42°21' W 071°02'1 2.1
2017-Oct-11 21:00N 42°22' W 071°03'2 4.3
2017-Oct-11 20:30N 42°21' W 071°01'1 2.8
2017-Oct-11 20:00N 42°21' W 071°03'0 0.0
2017-Oct-10 18:40N 42°21' W 071°03'0 2.3
2017-Oct-10 18:30N 42°21' W 071°02'1 2.2
2017-Oct-10 18:00N 42°21' W 071°01'2 4.5
2017-Oct-10 17:30N 42°22' W 071°03'1 1.7
2017-Oct-10 16:59N 42°21' W 071°03'0 0.0
2017-Oct-10 16:29N 42°21' W 071°03'  

Dump ship's entire track history